Latest Weather Observations for Rowley Shoals

IDW60801

Issued at 9:05 am WST Sunday 20 April 2014 (issued every 30 minutes, with the page automatically refreshed every 10 minutes)

About weather observations | Map of weather stations | Latest weather observations for WA | Other Formats
Station Details ID: 200713 Name: ROWLEY SHOALS Lat: -17.52 Lon: 118.95 Height: 0.0 m
Data from the previous 72 hours. | See also: Recent months for locations in Western Australia
Date/Time
WST
Temp
°C
App
Temp
°C
Dew
Point
Rel
Hum
%
Delta-T
°C
Wind Press
QNH
hPa
Press
MSL
hPa
Rain
since 9 am
mm
Dir
 
Spd
km/h
Gust
km/h
Spd
kts
Gust
kts
20/09:00am - - - - - S 11 15 6 8 1011.3 - -
20/08:30am - - - - - SSE 7 11 4 6 1011.2 - -
20/08:00am - - - - - SE 7 9 4 5 1011.1 1011.0 -
20/07:30am - - - - - CALM 0 0 0 0 1011.0 - -
20/07:00am - - - - - E 0 7 0 4 1010.8 1010.7 -
20/06:30am - - - - - NNE 4 6 2 3 1010.6 - -
20/06:00am - - - - - NNW 6 7 3 4 1010.3 1010.3 -
20/05:30am - - - - - NNW 7 7 4 4 1010.1 - -
20/05:00am - - - - - NNE 7 9 4 5 1010.1 1010.0 -
20/04:30am - - - - - NE 9 11 5 6 1010.1 - -
20/04:00am - - - - - ENE 7 11 4 6 1009.9 1009.9 -
20/03:30am - - - - - NE 11 13 6 7 1010.0 - -
20/03:00am - - - - - ENE 11 15 6 8 1009.9 1009.8 -
20/02:30am - - - - - NE 11 15 6 8 1010.0 - -
20/02:00am - - - - - NE 13 15 7 8 1010.1 1009.9 -
20/01:30am - - - - - ENE 11 13 6 7 1010.2 - -
20/01:00am - - - - - ENE 11 15 6 8 1010.3 1010.2 -
20/12:30am - - - - - E 11 11 6 6 1010.6 - -
20/12:00am - - - - - ESE 13 15 7 8 1010.8 1010.6 -
 
Date/Time
WST
Temp
°C
App
Temp
°C
Dew
Point
Rel
Hum
%
Delta-T
°C
Wind Press
QNH
hPa
Press
MSL
hPa
Rain
since 9 am
mm
Dir
 
Spd
km/h
Gust
km/h
Spd
kts
Gust
kts
19/11:30pm - - - - - ESE 13 15 7 8 1011.0 - -
19/11:00pm - - - - - SE 13 17 7 9 1011.1 1010.9 -
19/10:30pm - - - - - SE 15 19 8 10 1011.1 - -
19/10:00pm - - - - - SE 17 19 9 10 1011.2 1011.1 -
19/09:30pm - - - - - SE 17 19 9 10 1011.2 - -
19/09:00pm - - - - - SE 17 20 9 11 1011.3 1011.2 -
19/08:30pm - - - - - SE 17 17 9 9 1011.4 - -
19/08:00pm - - - - - ESE 17 19 9 10 1011.2 1011.2 -
19/07:30pm - - - - - SE 17 19 9 10 1010.8 - -
19/07:00pm - - - - - SE 19 20 10 11 1010.3 1010.4 -
19/06:30pm - - - - - SE 19 20 10 11 1010.0 - -
19/06:00pm - - - - - SE 20 22 11 12 1009.8 1009.8 -
19/05:30pm - - - - - SE 20 26 11 14 1009.7 - -
19/05:00pm - - - - - SE 24 26 13 14 1009.7 1009.5 -
19/04:30pm - - - - - SSE 24 28 13 15 1009.7 - -
19/04:00pm - - - - - SSE 26 30 14 16 1009.4 1009.4 -
19/03:30pm - - - - - SSE 26 30 14 16 1009.1 - -
19/03:00pm - - - - - SSE 28 33 15 18 1009.1 1009.0 -
19/02:30pm - - - - - SSE 28 33 15 18 1009.1 - -
19/02:00pm - - - - - SSE 28 33 15 18 1009.4 1009.2 -
19/01:30pm - - - - - SSE 32 35 17 19 1009.6 - -
19/01:00pm - - - - - SSE 30 35 16 19 1010.0 1009.8 -
19/12:30pm - - - - - SSE 33 37 18 20 1010.3 - -
19/12:00pm - - - - - SSE 35 41 19 22 1010.5 1010.4 -
19/11:30am - - - - - SSE 33 39 18 21 1011.0 - -
19/11:00am - - - - - SSE 33 39 18 21 1011.3 1011.1 -
19/10:30am - - - - - SSE 35 41 19 22 1011.8 - -
19/10:00am - - - - - SSE 32 39 17 21 1012.2 1011.9 -
19/09:30am - - - - - SSE 33 41 18 22 1012.3 - -
19/09:00am - - - - - SSE 33 37 18 20 1012.6 1012.4 -
19/08:30am - - - - - SSE 32 37 17 20 1012.4 - -
19/08:00am - - - - - SSE 26 35 14 19 1012.3 1012.2 -
19/07:30am - - - - - SSE 22 28 12 15 1012.1 - -
19/07:00am - - - - - SSE 17 22 9 12 1012.0 1011.9 -
19/06:30am - - - - - SSE 19 20 10 11 1011.9 - -
19/06:00am - - - - - S 15 15 8 8 1011.7 1011.6 -
19/05:30am - - - - - S 13 17 7 9 1011.5 - -
19/05:00am - - - - - S 13 17 7 9 1011.3 1011.3 -
19/04:30am - - - - - S 13 15 7 8 1011.4 - -
19/04:00am - - - - - S 11 13 6 7 1011.4 1011.3 -
19/03:30am - - - - - S 7 9 4 5 1011.4 - -
19/03:00am - - - - - S 7 7 4 4 1011.6 1011.4 -
19/02:30am - - - - - CALM 0 0 0 0 1011.7 - -
19/02:00am - - - - - CALM 0 0 0 0 1011.8 1011.7 -
19/01:30am - - - - - ENE 9 13 5 7 1012.1 - -
19/01:00am - - - - - ENE 15 19 8 10 1012.4 1012.2 -
19/12:30am - - - - - ENE 17 19 9 10 1012.6 - -
19/12:00am - - - - - ENE 17 20 9 11 1012.8 1012.6 -
 
Date/Time
WST
Temp
°C
App
Temp
°C
Dew
Point
Rel
Hum
%
Delta-T
°C
Wind Press
QNH
hPa
Press
MSL
hPa
Rain
since 9 am
mm
Dir
 
Spd
km/h
Gust
km/h
Spd
kts
Gust
kts
18/11:30pm - - - - - ENE 17 19 9 10 1012.9 - -
18/11:00pm - - - - - ENE 17 19 9 10 1013.1 1013.0 -
18/10:30pm - - - - - ENE 15 17 8 9 1013.2 - -
18/10:00pm - - - - - E 15 17 8 9 1013.3 1013.2 -
18/09:30pm - - - - - E 19 20 10 11 1013.5 - -
18/09:00pm - - - - - E 20 24 11 13 1013.3 1013.3 -
18/08:30pm - - - - - ESE 20 24 11 13 1013.2 - -
18/08:00pm - - - - - ESE 22 24 12 13 1013.0 1013.0 -
18/07:30pm - - - - - SE 22 26 12 14 1012.5 - -
18/07:00pm - - - - - ESE 24 26 13 14 1012.3 1012.2 -
18/06:30pm - - - - - ESE 24 28 13 15 1011.8 - -
18/06:00pm - - - - - SE 22 26 12 14 1011.5 1011.5 -
18/05:30pm - - - - - ESE 24 28 13 15 1011.2 - -
18/05:00pm - - - - - ESE 26 28 14 15 1011.1 1011.0 -
18/04:30pm - - - - - SE 22 26 12 14 1010.7 - -
18/04:00pm - - - - - SE 24 28 13 15 1010.4 1010.3 -
18/03:30pm - - - - - SE 24 30 13 16 1010.4 - -
18/03:00pm - - - - - SE 26 28 14 15 1010.5 1010.3 -
18/02:30pm - - - - - SSE 26 30 14 16 1010.6 - -
18/02:00pm - - - - - SSE 26 28 14 15 1010.7 1010.6 -
18/01:30pm - - - - - SSE 24 28 13 15 1010.8 - -
18/01:00pm - - - - - SSE 24 28 13 15 1011.1 1010.9 -
18/12:30pm - - - - - SSE 26 28 14 15 1011.6 - -
18/12:00pm - - - - - SSE 24 28 13 15 1011.8 1011.6 -
18/11:30am - - - - - SSE 24 28 13 15 1012.2 - -
18/11:00am - - - - - SSE 26 32 14 17 1012.4 1012.2 -
18/10:30am - - - - - SSE 26 30 14 16 1012.6 - -
18/10:00am - - - - - SSE 28 32 15 17 1012.7 1012.6 -
18/09:30am - - - - - SSE 26 28 14 15 1012.9 - -
18/09:00am - - - - - SSE 26 32 14 17 1012.8 1012.7 -
18/08:30am - - - - - SSE 26 30 14 16 1012.7 - -
18/08:00am - - - - - SSE 26 28 14 15 1012.8 1012.7 -
18/07:30am - - - - - SE 24 26 13 14 1012.7 - -
18/07:00am - - - - - SE 26 28 14 15 1012.6 1012.6 -
18/06:30am - - - - - SSE 24 30 13 16 1012.4 - -
18/06:00am - - - - - SE 22 24 12 13 1012.2 1012.2 -
18/05:30am - - - - - SE 20 24 11 13 1012.1 - -
18/05:00am - - - - - SE 20 20 11 11 1012.1 1012.0 -
18/04:30am - - - - - ESE 13 15 7 8 1011.9 - -
18/04:00am - - - - - ESE 13 15 7 8 1011.8 1011.7 -
18/03:30am - - - - - E 13 15 7 8 1012.1 - -
18/03:00am - - - - - E 15 19 8 10 1012.1 1012.0 -
18/02:30am - - - - - E 13 15 7 8 1012.1 - -
18/02:00am - - - - - E 15 17 8 9 1012.0 1011.9 -
18/01:30am - - - - - E 13 15 7 8 1012.1 - -
18/01:00am - - - - - E 11 15 6 8 1012.2 1012.0 -
18/12:30am - - - - - E 11 13 6 7 1012.4 - -
18/12:00am - - - - - ENE 13 19 7 10 1012.6 1012.4 -
 
Date/Time
WST
Temp
°C
App
Temp
°C
Dew
Point
Rel
Hum
%
Delta-T
°C
Wind Press
QNH
hPa
Press
MSL
hPa
Rain
since 9 am
mm
Dir
 
Spd
km/h
Gust
km/h
Spd
kts
Gust
kts
17/11:30pm - - - - - ENE 19 20 10 11 1012.8 - -
17/11:00pm - - - - - ENE 17 20 9 11 1012.8 1012.7 -
17/10:30pm - - - - - ENE 15 19 8 10 1012.9 - -
17/10:00pm - - - - - ENE 17 20 9 11 1013.0 1012.9 -
17/09:30pm - - - - - E 22 26 12 14 1013.1 - -
17/09:00pm - - - - - E 22 28 12 15 1013.1 1013.0 -
17/08:30pm - - - - - E 24 28 13 15 1012.9 - -
17/08:00pm - - - - - E 24 28 13 15 1012.7 1012.8 -
17/07:30pm - - - - - E 26 30 14 16 1012.3 - -
17/07:00pm - - - - - E 26 30 14 16 1011.9 1011.9 -
17/06:30pm - - - - - E 26 32 14 17 1011.7 - -
17/06:00pm - - - - - E 26 32 14 17 1011.5 1011.5 -
17/05:30pm - - - - - ESE 30 33 16 18 1011.0 - -
17/05:00pm - - - - - ESE 28 30 15 16 1010.8 1010.7 -
17/04:30pm - - - - - ESE 28 35 15 19 1010.5 - -
17/04:00pm - - - - - ESE 30 33 16 18 1010.4 1010.3 -
17/03:30pm - - - - - ESE 28 33 15 18 1010.2 - -
17/03:00pm - - - - - ESE 30 35 16 19 1010.1 1010.1 -
17/02:30pm - - - - - ESE 26 32 14 17 1010.2 - -
17/02:00pm - - - - - ESE 28 32 15 17 1010.4 1010.3 -
17/01:30pm - - - - - ESE 28 32 15 17 1010.5 - -
17/01:00pm - - - - - ESE 28 30 15 16 1010.9 1010.7 -
17/12:30pm - - - - - ESE 26 30 14 16 1011.1 - -
17/12:00pm - - - - - ESE 26 30 14 16 1011.6 1011.4 -
17/11:30am - - - - - ESE 26 30 14 16 1012.1 - -
17/11:00am - - - - - SE 28 32 15 17 1012.4 1012.2 -
17/10:30am - - - - - SE 26 32 14 17 1012.6 - -
17/10:00am - - - - - SE 26 32 14 17 1012.9 1012.7 -
17/09:30am - - - - - SE 28 32 15 17 1012.9 - -

Other Formats:

Comma delimited format used in spreadsheet applications
http://www.bom.gov.au/fwo/IDW60801/IDW60801.94207.axf

JavaScript Object Notation format (JSON) in row-major order
http://www.bom.gov.au/fwo/IDW60801/IDW60801.94207.json